sensor_id;sensor_type;location;lat;lon;timestamp;temperature;humidity
3356;DHT22;1691;52.486;13.374;2023-03-24T00:00:33;11.20;98.30
3356;DHT22;1691;52.486;13.374;2023-03-24T00:03:00;11.30;98.20
3356;DHT22;1691;52.486;13.374;2023-03-24T00:05:28;11.20;98.20
3356;DHT22;1691;52.486;13.374;2023-03-24T00:07:56;11.20;98.10
3356;DHT22;1691;52.486;13.374;2023-03-24T00:10:28;11.30;98.10
3356;DHT22;1691;52.486;13.374;2023-03-24T00:13:07;11.30;98.10
3356;DHT22;1691;52.486;13.374;2023-03-24T00:15:35;11.30;98.10
3356;DHT22;1691;52.486;13.374;2023-03-24T00:18:02;11.30;98.00
3356;DHT22;1691;52.486;13.374;2023-03-24T00:20:30;11.30;98.00
3356;DHT22;1691;52.486;13.374;2023-03-24T00:22:58;11.30;97.90
3356;DHT22;1691;52.486;13.374;2023-03-24T00:25:29;11.30;97.90
3356;DHT22;1691;52.486;13.374;2023-03-24T00:28:02;11.30;97.80
3356;DHT22;1691;52.486;13.374;2023-03-24T00:30:33;11.30;97.80
3356;DHT22;1691;52.486;13.374;2023-03-24T00:33:01;11.30;97.80
3356;DHT22;1691;52.486;13.374;2023-03-24T00:35:29;11.30;97.80
3356;DHT22;1691;52.486;13.374;2023-03-24T00:37:57;11.30;97.80
3356;DHT22;1691;52.486;13.374;2023-03-24T00:40:24;11.30;97.70
3356;DHT22;1691;52.486;13.374;2023-03-24T00:42:51;11.30;97.70
3356;DHT22;1691;52.486;13.374;2023-03-24T00:45:20;11.30;97.70
3356;DHT22;1691;52.486;13.374;2023-03-24T00:47:51;11.30;97.70
3356;DHT22;1691;52.486;13.374;2023-03-24T00:50:23;11.30;97.70
3356;DHT22;1691;52.486;13.374;2023-03-24T00:52:53;11.30;97.70
3356;DHT22;1691;52.486;13.374;2023-03-24T00:55:21;11.30;97.60
3356;DHT22;1691;52.486;13.374;2023-03-24T00:57:49;11.40;97.60
3356;DHT22;1691;52.486;13.374;2023-03-24T01:00:22;11.40;97.60
3356;DHT22;1691;52.486;13.374;2023-03-24T01:02:53;11.40;97.60
3356;DHT22;1691;52.486;13.374;2023-03-24T01:05:24;11.40;97.50
3356;DHT22;1691;52.486;13.374;2023-03-24T01:07:59;11.40;97.50
3356;DHT22;1691;52.486;13.374;2023-03-24T01:10:32;11.40;97.50
3356;DHT22;1691;52.486;13.374;2023-03-24T01:13:01;11.40;97.50
3356;DHT22;1691;52.486;13.374;2023-03-24T01:15:32;11.40;97.50
3356;DHT22;1691;52.486;13.374;2023-03-24T01:18:00;11.40;97.50
3356;DHT22;1691;52.486;13.374;2023-03-24T01:20:29;11.40;97.50
3356;DHT22;1691;52.486;13.374;2023-03-24T01:23:01;11.40;97.50
3356;DHT22;1691;52.486;13.374;2023-03-24T01:25:31;11.40;97.40
3356;DHT22;1691;52.486;13.374;2023-03-24T01:27:58;11.40;97.40
3356;DHT22;1691;52.486;13.374;2023-03-24T01:30:27;11.40;97.40
3356;DHT22;1691;52.486;13.374;2023-03-24T01:32:55;11.40;97.40
3356;DHT22;1691;52.486;13.374;2023-03-24T01:35:24;11.40;97.40
3356;DHT22;1691;52.486;13.374;2023-03-24T01:37:58;11.40;97.40
3356;DHT22;1691;52.486;13.374;2023-03-24T01:40:28;11.40;97.50
3356;DHT22;1691;52.486;13.374;2023-03-24T01:42:57;11.50;97.40
3356;DHT22;1691;52.486;13.374;2023-03-24T01:46:21;11.50;97.40
3356;DHT22;1691;52.486;13.374;2023-03-24T01:48:50;11.50;97.40
3356;DHT22;1691;52.486;13.374;2023-03-24T01:51:42;11.40;97.40
3356;DHT22;1691;52.486;13.374;2023-03-24T01:54:52;11.40;97.30
3356;DHT22;1691;52.486;13.374;2023-03-24T01:57:25;11.40;97.30
3356;DHT22;1691;52.486;13.374;2023-03-24T01:59:58;11.40;97.40
3356;DHT22;1691;52.486;13.374;2023-03-24T02:02:30;11.40;97.40
3356;DHT22;1691;52.486;13.374;2023-03-24T02:05:04;11.40;97.50
3356;DHT22;1691;52.486;13.374;2023-03-24T02:07:46;11.40;97.50
3356;DHT22;1691;52.486;13.374;2023-03-24T02:10:25;11.40;97.50
3356;DHT22;1691;52.486;13.374;2023-03-24T02:12:52;11.50;97.50
3356;DHT22;1691;52.486;13.374;2023-03-24T02:15:20;11.50;97.50
3356;DHT22;1691;52.486;13.374;2023-03-24T02:26:58;11.60;97.50
3356;DHT22;1691;52.486;13.374;2023-03-24T02:48:10;11.90;97.10
3356;DHT22;1691;52.486;13.374;2023-03-24T02:50:54;12.00;97.00
3356;DHT22;1691;52.486;13.374;2023-03-24T02:56:17;12.00;96.90
3356;DHT22;1691;52.486;13.374;2023-03-24T02:58:57;11.90;97.00
3356;DHT22;1691;52.486;13.374;2023-03-24T03:07:26;11.70;97.40
3356;DHT22;1691;52.486;13.374;2023-03-24T03:11:04;11.70;97.70
3356;DHT22;1691;52.486;13.374;2023-03-24T03:13:37;11.70;98.00
3356;DHT22;1691;52.486;13.374;2023-03-24T03:16:11;11.60;98.30
3356;DHT22;1691;52.486;13.374;2023-03-24T03:18:50;11.60;98.50
3356;DHT22;1691;52.486;13.374;2023-03-24T03:21:23;11.60;98.70
3356;DHT22;1691;52.486;13.374;2023-03-24T03:23:56;11.60;98.70
3356;DHT22;1691;52.486;13.374;2023-03-24T03:26:26;11.60;98.70
3356;DHT22;1691;52.486;13.374;2023-03-24T03:28:56;11.60;98.70
3356;DHT22;1691;52.486;13.374;2023-03-24T03:31:42;11.60;98.70
3356;DHT22;1691;52.486;13.374;2023-03-24T03:37:23;11.60;98.70
3356;DHT22;1691;52.486;13.374;2023-03-24T03:40:00;11.60;98.70
3356;DHT22;1691;52.486;13.374;2023-03-24T03:42:35;11.60;98.70
3356;DHT22;1691;52.486;13.374;2023-03-24T03:45:02;11.60;98.70
3356;DHT22;1691;52.486;13.374;2023-03-24T03:47:30;11.60;98.70
3356;DHT22;1691;52.486;13.374;2023-03-24T03:50:00;11.60;98.70
3356;DHT22;1691;52.486;13.374;2023-03-24T03:52:28;11.60;98.70
3356;DHT22;1691;52.486;13.374;2023-03-24T03:54:57;11.50;98.70
3356;DHT22;1691;52.486;13.374;2023-03-24T03:57:24;11.50;98.70
3356;DHT22;1691;52.486;13.374;2023-03-24T03:59:52;11.60;98.70
3356;DHT22;1691;52.486;13.374;2023-03-24T04:16:55;11.60;98.70
3356;DHT22;1691;52.486;13.374;2023-03-24T04:23:03;11.60;98.70
3356;DHT22;1691;52.486;13.374;2023-03-24T04:25:59;11.60;98.70
3356;DHT22;1691;52.486;13.374;2023-03-24T04:35:03;11.60;98.70
3356;DHT22;1691;52.486;13.374;2023-03-24T04:37:34;11.70;98.70
3356;DHT22;1691;52.486;13.374;2023-03-24T04:40:07;11.70;98.70
3356;DHT22;1691;52.486;13.374;2023-03-24T04:42:49;11.70;98.70
3356;DHT22;1691;52.486;13.374;2023-03-24T04:45:19;11.70;98.70
3356;DHT22;1691;52.486;13.374;2023-03-24T04:47:53;11.70;98.70
3356;DHT22;1691;52.486;13.374;2023-03-24T04:52:56;11.80;98.70
3356;DHT22;1691;52.486;13.374;2023-03-24T04:58:09;11.90;98.70
3356;DHT22;1691;52.486;13.374;2023-03-24T05:00:36;11.90;98.70
3356;DHT22;1691;52.486;13.374;2023-03-24T05:03:03;12.00;98.70
3356;DHT22;1691;52.486;13.374;2023-03-24T05:05:30;12.00;98.70
3356;DHT22;1691;52.486;13.374;2023-03-24T05:07:57;12.00;98.70
3356;DHT22;1691;52.486;13.374;2023-03-24T05:10:25;12.00;98.70
3356;DHT22;1691;52.486;13.374;2023-03-24T05:12:52;12.10;98.70
3356;DHT22;1691;52.486;13.374;2023-03-24T05:15:19;12.10;98.70
3356;DHT22;1691;52.486;13.374;2023-03-24T05:17:46;12.10;98.70
3356;DHT22;1691;52.486;13.374;2023-03-24T05:20:14;12.10;98.70
3356;DHT22;1691;52.486;13.374;2023-03-24T05:22:41;12.20;98.70
3356;DHT22;1691;52.486;13.374;2023-03-24T05:25:08;12.20;98.70
3356;DHT22;1691;52.486;13.374;2023-03-24T05:27:36;12.20;98.70
3356;DHT22;1691;52.486;13.374;2023-03-24T05:30:06;12.20;98.70
3356;DHT22;1691;52.486;13.374;2023-03-24T05:32:34;12.30;98.70
3356;DHT22;1691;52.486;13.374;2023-03-24T05:35:02;12.30;98.70
3356;DHT22;1691;52.486;13.374;2023-03-24T05:37:30;12.30;98.70
3356;DHT22;1691;52.486;13.374;2023-03-24T05:39:57;12.40;98.70
3356;DHT22;1691;52.486;13.374;2023-03-24T05:42:24;12.40;98.70
3356;DHT22;1691;52.486;13.374;2023-03-24T05:44:51;12.40;98.70
3356;DHT22;1691;52.486;13.374;2023-03-24T05:47:18;12.40;98.70
3356;DHT22;1691;52.486;13.374;2023-03-24T05:49:46;12.40;98.70
3356;DHT22;1691;52.486;13.374;2023-03-24T05:52:13;12.50;98.70
3356;DHT22;1691;52.486;13.374;2023-03-24T05:54:43;12.50;98.70
3356;DHT22;1691;52.486;13.374;2023-03-24T05:57:14;12.50;98.70
3356;DHT22;1691;52.486;13.374;2023-03-24T05:59:42;12.50;98.70
3356;DHT22;1691;52.486;13.374;2023-03-24T06:02:09;12.50;98.70
3356;DHT22;1691;52.486;13.374;2023-03-24T06:04:36;12.50;98.70
3356;DHT22;1691;52.486;13.374;2023-03-24T06:07:04;12.60;98.70
3356;DHT22;1691;52.486;13.374;2023-03-24T06:09:31;12.60;98.70
3356;DHT22;1691;52.486;13.374;2023-03-24T06:12:04;12.70;98.70
3356;DHT22;1691;52.486;13.374;2023-03-24T06:14:31;12.70;98.70
3356;DHT22;1691;52.486;13.374;2023-03-24T06:16:59;12.70;98.70
3356;DHT22;1691;52.486;13.374;2023-03-24T06:19:26;12.80;98.70
3356;DHT22;1691;52.486;13.374;2023-03-24T06:21:56;12.80;98.70
3356;DHT22;1691;52.486;13.374;2023-03-24T06:24:29;12.80;98.70
3356;DHT22;1691;52.486;13.374;2023-03-24T06:26:56;12.90;98.70
3356;DHT22;1691;52.486;13.374;2023-03-24T06:29:28;12.90;98.70
3356;DHT22;1691;52.486;13.374;2023-03-24T06:31:56;13.00;98.70
3356;DHT22;1691;52.486;13.374;2023-03-24T06:34:24;13.10;98.70
3356;DHT22;1691;52.486;13.374;2023-03-24T06:36:51;13.10;98.70
3356;DHT22;1691;52.486;13.374;2023-03-24T06:39:18;13.20;98.70
3356;DHT22;1691;52.486;13.374;2023-03-24T06:41:46;13.20;98.70
3356;DHT22;1691;52.486;13.374;2023-03-24T06:44:13;13.30;98.70
3356;DHT22;1691;52.486;13.374;2023-03-24T06:46:40;13.30;98.70
3356;DHT22;1691;52.486;13.374;2023-03-24T06:49:07;13.40;98.70
3356;DHT22;1691;52.486;13.374;2023-03-24T06:51:34;13.40;98.70
3356;DHT22;1691;52.486;13.374;2023-03-24T06:54:02;13.50;98.70
3356;DHT22;1691;52.486;13.374;2023-03-24T06:56:29;13.50;98.70
3356;DHT22;1691;52.486;13.374;2023-03-24T06:58:56;13.60;98.70
3356;DHT22;1691;52.486;13.374;2023-03-24T07:01:23;13.60;98.70
3356;DHT22;1691;52.486;13.374;2023-03-24T07:03:50;13.70;98.70
3356;DHT22;1691;52.486;13.374;2023-03-24T07:06:19;13.70;98.70
3356;DHT22;1691;52.486;13.374;2023-03-24T07:08:46;13.70;98.70
3356;DHT22;1691;52.486;13.374;2023-03-24T07:11:13;13.80;98.70
3356;DHT22;1691;52.486;13.374;2023-03-24T07:13:41;13.80;98.70
3356;DHT22;1691;52.486;13.374;2023-03-24T07:16:08;13.90;98.70
3356;DHT22;1691;52.486;13.374;2023-03-24T07:18:35;14.00;98.70
3356;DHT22;1691;52.486;13.374;2023-03-24T07:21:02;14.10;98.70
3356;DHT22;1691;52.486;13.374;2023-03-24T07:23:30;14.10;98.70
3356;DHT22;1691;52.486;13.374;2023-03-24T07:25:59;14.10;98.70
3356;DHT22;1691;52.486;13.374;2023-03-24T07:28:26;14.20;98.70
3356;DHT22;1691;52.486;13.374;2023-03-24T07:30:53;14.30;98.70
3356;DHT22;1691;52.486;13.374;2023-03-24T07:33:21;14.40;98.70
3356;DHT22;1691;52.486;13.374;2023-03-24T07:35:54;14.60;98.70
3356;DHT22;1691;52.486;13.374;2023-03-24T07:38:23;15.00;98.70
3356;DHT22;1691;52.486;13.374;2023-03-24T07:40:50;15.70;98.70
3356;DHT22;1691;52.486;13.374;2023-03-24T07:43:18;16.00;97.60
3356;DHT22;1691;52.486;13.374;2023-03-24T07:45:45;16.10;96.70
3356;DHT22;1691;52.486;13.374;2023-03-24T07:48:12;16.10;95.90
3356;DHT22;1691;52.486;13.374;2023-03-24T07:50:39;15.90;95.60
3356;DHT22;1691;52.486;13.374;2023-03-24T07:53:06;15.70;95.50
3356;DHT22;1691;52.486;13.374;2023-03-24T07:55:37;15.60;95.40
3356;DHT22;1691;52.486;13.374;2023-03-24T07:58:04;15.50;95.40
3356;DHT22;1691;52.486;13.374;2023-03-24T08:00:32;15.30;95.50
3356;DHT22;1691;52.486;13.374;2023-03-24T08:02:59;15.20;95.60
3356;DHT22;1691;52.486;13.374;2023-03-24T08:05:28;15.10;95.70
3356;DHT22;1691;52.486;13.374;2023-03-24T08:07:56;15.00;96.00
3356;DHT22;1691;52.486;13.374;2023-03-24T08:10:27;14.80;96.10
3356;DHT22;1691;52.486;13.374;2023-03-24T08:12:56;14.70;96.10
3356;DHT22;1691;52.486;13.374;2023-03-24T08:15:23;14.60;96.40
3356;DHT22;1691;52.486;13.374;2023-03-24T08:17:52;14.40;96.60
3356;DHT22;1691;52.486;13.374;2023-03-24T08:20:19;14.40;96.80
3356;DHT22;1691;52.486;13.374;2023-03-24T08:22:48;14.30;97.00
3356;DHT22;1691;52.486;13.374;2023-03-24T08:25:17;14.30;97.20
3356;DHT22;1691;52.486;13.374;2023-03-24T08:27:45;14.20;97.30
3356;DHT22;1691;52.486;13.374;2023-03-24T08:30:18;14.20;97.40
3356;DHT22;1691;52.486;13.374;2023-03-24T08:32:49;14.10;97.60
3356;DHT22;1691;52.486;13.374;2023-03-24T08:35:20;14.10;97.70
3356;DHT22;1691;52.486;13.374;2023-03-24T08:37:49;14.00;97.80
3356;DHT22;1691;52.486;13.374;2023-03-24T08:40:19;14.00;97.90
3356;DHT22;1691;52.486;13.374;2023-03-24T08:42:51;14.00;98.00
3356;DHT22;1691;52.486;13.374;2023-03-24T08:45:21;14.00;98.00
3356;DHT22;1691;52.486;13.374;2023-03-24T08:47:50;14.00;98.10
3356;DHT22;1691;52.486;13.374;2023-03-24T08:50:19;14.00;98.10
3356;DHT22;1691;52.486;13.374;2023-03-24T08:52:48;14.00;98.10
3356;DHT22;1691;52.486;13.374;2023-03-24T08:55:17;14.00;98.20
3356;DHT22;1691;52.486;13.374;2023-03-24T08:57:45;14.10;98.30
3356;DHT22;1691;52.486;13.374;2023-03-24T09:00:14;14.20;98.30
3356;DHT22;1691;52.486;13.374;2023-03-24T09:02:43;14.30;98.30
3356;DHT22;1691;52.486;13.374;2023-03-24T09:05:15;14.50;98.20
3356;DHT22;1691;52.486;13.374;2023-03-24T09:07:52;14.60;98.10
3356;DHT22;1691;52.486;13.374;2023-03-24T09:10:19;14.70;97.80
3356;DHT22;1691;52.486;13.374;2023-03-24T09:12:48;14.90;97.60
3356;DHT22;1691;52.486;13.374;2023-03-24T09:15:15;14.90;97.40
3356;DHT22;1691;52.486;13.374;2023-03-24T09:17:42;15.00;97.10
3356;DHT22;1691;52.486;13.374;2023-03-24T09:20:13;14.90;97.00
3356;DHT22;1691;52.486;13.374;2023-03-24T09:22:43;14.90;96.80
3356;DHT22;1691;52.486;13.374;2023-03-24T09:25:14;14.90;96.70
3356;DHT22;1691;52.486;13.374;2023-03-24T09:27:43;14.80;96.70
3356;DHT22;1691;52.486;13.374;2023-03-24T09:30:12;14.80;96.60
3356;DHT22;1691;52.486;13.374;2023-03-24T09:32:41;14.80;96.60
3356;DHT22;1691;52.486;13.374;2023-03-24T09:35:09;14.70;96.60
3356;DHT22;1691;52.486;13.374;2023-03-24T09:37:37;14.80;96.50
3356;DHT22;1691;52.486;13.374;2023-03-24T09:40:05;14.80;96.50
3356;DHT22;1691;52.486;13.374;2023-03-24T09:42:36;15.00;96.60
3356;DHT22;1691;52.486;13.374;2023-03-24T09:45:14;15.40;96.70
3356;DHT22;1691;52.486;13.374;2023-03-24T09:47:48;16.10;96.00
3356;DHT22;1691;52.486;13.374;2023-03-24T09:50:45;16.70;95.00
3356;DHT22;1691;52.486;13.374;2023-03-24T09:56:11;17.40;93.00
3356;DHT22;1691;52.486;13.374;2023-03-24T09:58:40;17.60;92.40
3356;DHT22;1691;52.486;13.374;2023-03-24T10:01:13;17.70;92.00
3356;DHT22;1691;52.486;13.374;2023-03-24T10:03:42;17.80;91.60
3356;DHT22;1691;52.486;13.374;2023-03-24T10:08:48;17.80;90.70
3356;DHT22;1691;52.486;13.374;2023-03-24T10:20:47;17.40;89.70
3356;DHT22;1691;52.486;13.374;2023-03-24T10:32:02;16.80;88.20
3356;DHT22;1691;52.486;13.374;2023-03-24T10:34:32;16.70;88.60
3356;DHT22;1691;52.486;13.374;2023-03-24T10:37:01;16.70;89.20
3356;DHT22;1691;52.486;13.374;2023-03-24T10:39:30;17.00;89.30
3356;DHT22;1691;52.486;13.374;2023-03-24T10:42:01;17.40;88.60
3356;DHT22;1691;52.486;13.374;2023-03-24T10:44:30;17.90;87.70
3356;DHT22;1691;52.486;13.374;2023-03-24T10:46:58;18.50;86.40
3356;DHT22;1691;52.486;13.374;2023-03-24T10:49:29;18.90;84.90
3356;DHT22;1691;52.486;13.374;2023-03-24T10:52:01;19.20;83.40
3356;DHT22;1691;52.486;13.374;2023-03-24T10:54:31;19.20;82.30
3356;DHT22;1691;52.486;13.374;2023-03-24T10:59:31;18.90;81.70
3356;DHT22;1691;52.486;13.374;2023-03-24T11:04:39;18.50;82.10
3356;DHT22;1691;52.486;13.374;2023-03-24T11:07:18;18.30;81.90
3356;DHT22;1691;52.486;13.374;2023-03-24T11:10:01;18.20;81.90
3356;DHT22;1691;52.486;13.374;2023-03-24T11:15:24;18.10;82.10
3356;DHT22;1691;52.486;13.374;2023-03-24T11:20:52;18.10;81.50
3356;DHT22;1691;52.486;13.374;2023-03-24T11:28:28;18.70;79.80
3356;DHT22;1691;52.486;13.374;2023-03-24T11:30:56;18.90;78.90
3356;DHT22;1691;52.486;13.374;2023-03-24T11:33:31;19.00;78.00
3356;DHT22;1691;52.486;13.374;2023-03-24T11:41:39;18.90;76.30
3356;DHT22;1691;52.486;13.374;2023-03-24T11:44:23;19.00;75.90
3356;DHT22;1691;52.486;13.374;2023-03-24T11:52:53;19.30;73.50
3356;DHT22;1691;52.486;13.374;2023-03-24T11:58:30;19.50;72.40
3356;DHT22;1691;52.486;13.374;2023-03-24T12:09:46;19.60;71.50
3356;DHT22;1691;52.486;13.374;2023-03-24T12:15:32;19.30;70.30
3356;DHT22;1691;52.486;13.374;2023-03-24T12:23:58;19.20;71.10
3356;DHT22;1691;52.486;13.374;2023-03-24T12:26:29;19.10;71.10
3356;DHT22;1691;52.486;13.374;2023-03-24T12:34:35;19.00;70.00
3356;DHT22;1691;52.486;13.374;2023-03-24T12:46:29;18.40;70.50
3356;DHT22;1691;52.486;13.374;2023-03-24T12:49:45;18.30;70.50
3356;DHT22;1691;52.486;13.374;2023-03-24T12:55:00;18.20;71.10
3356;DHT22;1691;52.486;13.374;2023-03-24T12:57:40;18.20;71.10
3356;DHT22;1691;52.486;13.374;2023-03-24T13:00:28;18.10;71.10
3356;DHT22;1691;52.486;13.374;2023-03-24T13:03:00;18.00;71.30
3356;DHT22;1691;52.486;13.374;2023-03-24T13:05:33;17.90;71.50
3356;DHT22;1691;52.486;13.374;2023-03-24T13:08:10;17.70;71.60
3356;DHT22;1691;52.486;13.374;2023-03-24T13:10:42;17.60;71.80
3356;DHT22;1691;52.486;13.374;2023-03-24T13:13:15;17.60;72.00
3356;DHT22;1691;52.486;13.374;2023-03-24T13:16:08;17.50;72.00
3356;DHT22;1691;52.486;13.374;2023-03-24T13:18:43;17.30;72.80
3356;DHT22;1691;52.486;13.374;2023-03-24T13:21:22;17.20;73.70
3356;DHT22;1691;52.486;13.374;2023-03-24T13:24:02;17.00;74.60
3356;DHT22;1691;52.486;13.374;2023-03-24T13:32:51;16.50;78.70
3356;DHT22;1691;52.486;13.374;2023-03-24T13:40:49;16.20;82.40
3356;DHT22;1691;52.486;13.374;2023-03-24T13:43:24;16.10;83.00
3356;DHT22;1691;52.486;13.374;2023-03-24T13:48:43;16.00;83.90
3356;DHT22;1691;52.486;13.374;2023-03-24T13:53:59;16.00;83.90
3356;DHT22;1691;52.486;13.374;2023-03-24T13:57:05;16.00;83.40
3356;DHT22;1691;52.486;13.374;2023-03-24T14:00:36;16.00;82.40
3356;DHT22;1691;52.486;13.374;2023-03-24T14:02:51;16.10;81.30
3356;DHT22;1691;52.486;13.374;2023-03-24T14:07:50;16.10;78.90
3356;DHT22;1691;52.486;13.374;2023-03-24T14:21:05;15.40;77.00
3356;DHT22;1691;52.486;13.374;2023-03-24T14:28:50;15.20;78.00
3356;DHT22;1691;52.486;13.374;2023-03-24T14:31:23;15.20;78.00
3356;DHT22;1691;52.486;13.374;2023-03-24T14:41:56;15.60;78.30
3356;DHT22;1691;52.486;13.374;2023-03-24T14:47:20;16.00;77.60
3356;DHT22;1691;52.486;13.374;2023-03-24T14:49:56;16.10;77.40
3356;DHT22;1691;52.486;13.374;2023-03-24T14:55:08;16.20;77.00
3356;DHT22;1691;52.486;13.374;2023-03-24T14:57:43;16.20;77.20
3356;DHT22;1691;52.486;13.374;2023-03-24T15:00:21;16.30;77.00
3356;DHT22;1691;52.486;13.374;2023-03-24T15:05:49;16.30;76.70
3356;DHT22;1691;52.486;13.374;2023-03-24T15:08:21;16.40;76.30
3356;DHT22;1691;52.486;13.374;2023-03-24T15:13:51;16.50;75.00
3356;DHT22;1691;52.486;13.374;2023-03-24T15:16:35;16.60;74.40
3356;DHT22;1691;52.486;13.374;2023-03-24T15:19:08;16.60;73.70
3356;DHT22;1691;52.486;13.374;2023-03-24T15:21:39;16.60;73.30
3356;DHT22;1691;52.486;13.374;2023-03-24T15:27:13;16.60;72.40
3356;DHT22;1691;52.486;13.374;2023-03-24T15:29:42;16.70;71.60
3356;DHT22;1691;52.486;13.374;2023-03-24T15:32:16;16.70;70.70
3356;DHT22;1691;52.486;13.374;2023-03-24T15:34:56;16.70;70.00
3356;DHT22;1691;52.486;13.374;2023-03-24T15:40:01;16.70;68.50
3356;DHT22;1691;52.486;13.374;2023-03-24T15:42:43;16.70;67.50
3356;DHT22;1691;52.486;13.374;2023-03-24T15:45:28;16.70;66.80
3356;DHT22;1691;52.486;13.374;2023-03-24T15:47:57;16.70;66.10
3356;DHT22;1691;52.486;13.374;2023-03-24T15:50:40;16.60;65.90
3356;DHT22;1691;52.486;13.374;2023-03-24T15:53:23;16.60;65.10
3356;DHT22;1691;52.486;13.374;2023-03-24T16:01:23;16.20;64.20
3356;DHT22;1691;52.486;13.374;2023-03-24T16:03:53;16.00;64.20
3356;DHT22;1691;52.486;13.374;2023-03-24T16:06:29;15.90;64.40
3356;DHT22;1691;52.486;13.374;2023-03-24T16:09:05;15.70;64.20
3356;DHT22;1691;52.486;13.374;2023-03-24T16:11:36;15.60;64.00
3356;DHT22;1691;52.486;13.374;2023-03-24T16:14:26;15.50;64.20
3356;DHT22;1691;52.486;13.374;2023-03-24T16:16:56;15.40;64.20
3356;DHT22;1691;52.486;13.374;2023-03-24T16:19:25;15.30;64.40
3356;DHT22;1691;52.486;13.374;2023-03-24T16:21:52;15.20;64.60
3356;DHT22;1691;52.486;13.374;2023-03-24T16:24:20;15.20;64.70
3356;DHT22;1691;52.486;13.374;2023-03-24T16:26:48;15.10;64.90
3356;DHT22;1691;52.486;13.374;2023-03-24T16:29:18;15.00;65.10
3356;DHT22;1691;52.486;13.374;2023-03-24T16:31:50;15.00;65.50
3356;DHT22;1691;52.486;13.374;2023-03-24T16:34:20;14.90;65.70
3356;DHT22;1691;52.486;13.374;2023-03-24T16:36:49;14.90;65.90
3356;DHT22;1691;52.486;13.374;2023-03-24T16:39:20;14.90;65.90
3356;DHT22;1691;52.486;13.374;2023-03-24T16:41:49;14.90;66.10
3356;DHT22;1691;52.486;13.374;2023-03-24T16:44:16;14.90;66.20
3356;DHT22;1691;52.486;13.374;2023-03-24T16:46:44;14.90;66.20
3356;DHT22;1691;52.486;13.374;2023-03-24T16:49:15;14.90;66.20
3356;DHT22;1691;52.486;13.374;2023-03-24T16:51:44;14.90;66.20
3356;DHT22;1691;52.486;13.374;2023-03-24T16:54:12;14.90;66.40
3356;DHT22;1691;52.486;13.374;2023-03-24T16:56:40;14.80;66.60
3356;DHT22;1691;52.486;13.374;2023-03-24T16:59:07;14.80;66.60
3356;DHT22;1691;52.486;13.374;2023-03-24T17:01:38;14.70;67.00
3356;DHT22;1691;52.486;13.374;2023-03-24T17:04:14;14.70;67.20
3356;DHT22;1691;52.486;13.374;2023-03-24T17:06:44;14.60;67.40
3356;DHT22;1691;52.486;13.374;2023-03-24T17:09:16;14.60;67.50
3356;DHT22;1691;52.486;13.374;2023-03-24T17:11:46;14.60;67.70
3356;DHT22;1691;52.486;13.374;2023-03-24T17:14:24;14.50;67.90
3356;DHT22;1691;52.486;13.374;2023-03-24T17:16:51;14.50;68.10
3356;DHT22;1691;52.486;13.374;2023-03-24T17:19:21;14.40;68.30
3356;DHT22;1691;52.486;13.374;2023-03-24T17:22:03;14.30;68.50
3356;DHT22;1691;52.486;13.374;2023-03-24T17:24:33;14.20;68.50
3356;DHT22;1691;52.486;13.374;2023-03-24T17:27:02;14.20;68.70
3356;DHT22;1691;52.486;13.374;2023-03-24T17:29:29;14.10;69.00
3356;DHT22;1691;52.486;13.374;2023-03-24T17:31:57;14.00;69.20
3356;DHT22;1691;52.486;13.374;2023-03-24T17:34:24;13.90;69.40
3356;DHT22;1691;52.486;13.374;2023-03-24T17:36:51;13.80;69.60
3356;DHT22;1691;52.486;13.374;2023-03-24T17:39:19;13.70;69.80
3356;DHT22;1691;52.486;13.374;2023-03-24T17:41:47;13.70;70.10
3356;DHT22;1691;52.486;13.374;2023-03-24T17:44:14;13.60;70.10
3356;DHT22;1691;52.486;13.374;2023-03-24T17:46:41;13.50;70.50
3356;DHT22;1691;52.486;13.374;2023-03-24T17:49:09;13.40;70.70
3356;DHT22;1691;52.486;13.374;2023-03-24T17:51:36;13.30;70.90
3356;DHT22;1691;52.486;13.374;2023-03-24T17:54:03;13.30;71.10
3356;DHT22;1691;52.486;13.374;2023-03-24T17:56:31;13.20;71.50
3356;DHT22;1691;52.486;13.374;2023-03-24T17:58:58;13.10;71.80
3356;DHT22;1691;52.486;13.374;2023-03-24T18:01:25;13.10;72.20
3356;DHT22;1691;52.486;13.374;2023-03-24T18:03:56;13.00;72.40
3356;DHT22;1691;52.486;13.374;2023-03-24T18:06:24;13.10;72.60
3356;DHT22;1691;52.486;13.374;2023-03-24T18:08:53;13.10;72.60
3356;DHT22;1691;52.486;13.374;2023-03-24T18:11:19;13.10;72.60
3356;DHT22;1691;52.486;13.374;2023-03-24T18:13:46;13.10;72.60
3356;DHT22;1691;52.486;13.374;2023-03-24T18:16:14;13.10;72.60
3356;DHT22;1691;52.486;13.374;2023-03-24T18:18:48;13.10;72.80
3356;DHT22;1691;52.486;13.374;2023-03-24T18:21:17;13.10;72.90
3356;DHT22;1691;52.486;13.374;2023-03-24T18:23:44;13.00;73.10
3356;DHT22;1691;52.486;13.374;2023-03-24T18:26:13;12.90;73.50
3356;DHT22;1691;52.486;13.374;2023-03-24T18:28:41;12.90;73.70
3356;DHT22;1691;52.486;13.374;2023-03-24T18:31:19;12.80;73.90
3356;DHT22;1691;52.486;13.374;2023-03-24T18:33:48;12.70;74.40
3356;DHT22;1691;52.486;13.374;2023-03-24T18:36:19;12.70;74.60
3356;DHT22;1691;52.486;13.374;2023-03-24T18:39:00;12.60;74.80
3356;DHT22;1691;52.486;13.374;2023-03-24T18:41:30;12.50;75.20
3356;DHT22;1691;52.486;13.374;2023-03-24T18:43:58;12.50;75.40
3356;DHT22;1691;52.486;13.374;2023-03-24T18:46:25;12.40;75.70
3356;DHT22;1691;52.486;13.374;2023-03-24T18:48:53;12.40;75.90
3356;DHT22;1691;52.486;13.374;2023-03-24T18:51:21;12.30;76.10
3356;DHT22;1691;52.486;13.374;2023-03-24T18:53:51;12.30;76.70
3356;DHT22;1691;52.486;13.374;2023-03-24T18:56:19;12.20;76.90
3356;DHT22;1691;52.486;13.374;2023-03-24T18:58:48;12.20;77.00
3356;DHT22;1691;52.486;13.374;2023-03-24T19:01:18;12.10;77.20
3356;DHT22;1691;52.486;13.374;2023-03-24T19:03:51;12.10;77.40
3356;DHT22;1691;52.486;13.374;2023-03-24T19:06:19;12.00;77.80
3356;DHT22;1691;52.486;13.374;2023-03-24T19:08:51;12.00;78.00
3356;DHT22;1691;52.486;13.374;2023-03-24T19:11:18;11.90;78.20
3356;DHT22;1691;52.486;13.374;2023-03-24T19:13:46;11.80;78.70
3356;DHT22;1691;52.486;13.374;2023-03-24T19:16:17;11.80;78.90
3356;DHT22;1691;52.486;13.374;2023-03-24T19:18:45;11.70;79.10
3356;DHT22;1691;52.486;13.374;2023-03-24T19:21:14;11.70;79.30
3356;DHT22;1691;52.486;13.374;2023-03-24T19:23:43;11.70;79.50
3356;DHT22;1691;52.486;13.374;2023-03-24T19:26:10;11.70;79.70
3356;DHT22;1691;52.486;13.374;2023-03-24T19:28:38;11.70;79.80
3356;DHT22;1691;52.486;13.374;2023-03-24T19:31:07;11.80;80.00
3356;DHT22;1691;52.486;13.374;2023-03-24T19:33:36;12.00;79.70
3356;DHT22;1691;52.486;13.374;2023-03-24T19:36:05;12.10;79.50
3356;DHT22;1691;52.486;13.374;2023-03-24T19:38:34;12.20;79.10
3356;DHT22;1691;52.486;13.374;2023-03-24T19:41:11;12.30;78.70
3356;DHT22;1691;52.486;13.374;2023-03-24T19:43:39;12.30;78.50
3356;DHT22;1691;52.486;13.374;2023-03-24T19:46:06;12.30;78.50
3356;DHT22;1691;52.486;13.374;2023-03-24T19:48:34;12.20;78.50
3356;DHT22;1691;52.486;13.374;2023-03-24T19:51:01;12.10;78.70
3356;DHT22;1691;52.486;13.374;2023-03-24T19:53:29;12.10;78.90
3356;DHT22;1691;52.486;13.374;2023-03-24T19:55:57;12.00;79.10